sensor_id;sensor_type;location;lat;lon;timestamp;P1;durP1;ratioP1;P2;durP2;ratioP2
51995;SDS011;38010;53.264;6.592;2023-02-08T00:01:37;2.72;;;1.77;;
51995;SDS011;38010;53.264;6.592;2023-02-08T00:04:03;2.28;;;1.98;;
51995;SDS011;38010;53.264;6.592;2023-02-08T00:06:28;2.15;;;1.75;;
51995;SDS011;38010;53.264;6.592;2023-02-08T00:08:54;2.22;;;1.65;;
51995;SDS011;38010;53.264;6.592;2023-02-08T00:11:20;2.38;;;1.90;;
51995;SDS011;38010;53.264;6.592;2023-02-08T00:13:46;2.03;;;1.73;;
51995;SDS011;38010;53.264;6.592;2023-02-08T00:16:12;2.35;;;1.98;;
51995;SDS011;38010;53.264;6.592;2023-02-08T00:18:39;2.25;;;1.98;;
51995;SDS011;38010;53.264;6.592;2023-02-08T00:21:12;2.03;;;1.70;;
51995;SDS011;38010;53.264;6.592;2023-02-08T00:23:40;3.38;;;1.73;;
51995;SDS011;38010;53.264;6.592;2023-02-08T00:26:06;2.33;;;2.00;;
51995;SDS011;38010;53.264;6.592;2023-02-08T00:28:32;2.00;;;1.70;;
51995;SDS011;38010;53.264;6.592;2023-02-08T00:30:58;2.65;;;2.00;;
51995;SDS011;38010;53.264;6.592;2023-02-08T00:33:24;2.15;;;1.75;;
51995;SDS011;38010;53.264;6.592;2023-02-08T00:35:49;2.70;;;1.98;;
51995;SDS011;38010;53.264;6.592;2023-02-08T00:38:15;2.38;;;1.60;;
51995;SDS011;38010;53.264;6.592;2023-02-08T00:40:41;2.15;;;1.85;;
51995;SDS011;38010;53.264;6.592;2023-02-08T00:43:06;1.80;;;1.70;;
51995;SDS011;38010;53.264;6.592;2023-02-08T00:45:32;1.88;;;1.60;;
51995;SDS011;38010;53.264;6.592;2023-02-08T00:47:58;2.35;;;1.75;;
51995;SDS011;38010;53.264;6.592;2023-02-08T00:50:24;2.13;;;1.70;;
51995;SDS011;38010;53.264;6.592;2023-02-08T00:52:50;1.90;;;1.60;;
51995;SDS011;38010;53.264;6.592;2023-02-08T00:55:16;2.28;;;1.67;;
51995;SDS011;38010;53.264;6.592;2023-02-08T00:57:41;2.15;;;1.92;;
51995;SDS011;38010;53.264;6.592;2023-02-08T01:00:07;2.05;;;1.75;;
51995;SDS011;38010;53.264;6.592;2023-02-08T01:02:34;1.90;;;1.58;;
51995;SDS011;38010;53.264;6.592;2023-02-08T01:05:01;1.70;;;1.45;;
51995;SDS011;38010;53.264;6.592;2023-02-08T01:07:27;2.25;;;1.77;;
51995;SDS011;38010;53.264;6.592;2023-02-08T01:09:52;1.80;;;1.63;;
51995;SDS011;38010;53.264;6.592;2023-02-08T01:12:18;2.28;;;1.70;;
51995;SDS011;38010;53.264;6.592;2023-02-08T01:14:44;1.77;;;1.63;;
51995;SDS011;38010;53.264;6.592;2023-02-08T01:17:09;2.25;;;1.80;;
51995;SDS011;38010;53.264;6.592;2023-02-08T01:19:35;2.33;;;1.90;;
51995;SDS011;38010;53.264;6.592;2023-02-08T01:22:01;1.95;;;1.70;;
51995;SDS011;38010;53.264;6.592;2023-02-08T01:24:27;1.88;;;1.60;;
51995;SDS011;38010;53.264;6.592;2023-02-08T01:26:52;1.88;;;1.70;;
51995;SDS011;38010;53.264;6.592;2023-02-08T01:29:18;1.80;;;1.65;;
51995;SDS011;38010;53.264;6.592;2023-02-08T01:31:43;2.33;;;1.70;;
51995;SDS011;38010;53.264;6.592;2023-02-08T01:34:09;2.10;;;1.52;;
51995;SDS011;38010;53.264;6.592;2023-02-08T01:36:36;1.88;;;1.55;;
51995;SDS011;38010;53.264;6.592;2023-02-08T01:39:03;2.42;;;1.92;;
51995;SDS011;38010;53.264;6.592;2023-02-08T01:41:32;1.90;;;1.63;;
51995;SDS011;38010;53.264;6.592;2023-02-08T01:46:41;1.85;;;1.67;;
51995;SDS011;38010;53.264;6.592;2023-02-08T01:49:11;1.85;;;1.58;;
51995;SDS011;38010;53.264;6.592;2023-02-08T01:51:44;2.10;;;1.60;;
51995;SDS011;38010;53.264;6.592;2023-02-08T01:54:18;1.70;;;1.55;;
51995;SDS011;38010;53.264;6.592;2023-02-08T01:56:47;2.22;;;1.67;;
51995;SDS011;38010;53.264;6.592;2023-02-08T01:59:19;1.98;;;1.77;;
51995;SDS011;38010;53.264;6.592;2023-02-08T02:01:57;1.92;;;1.70;;
51995;SDS011;38010;53.264;6.592;2023-02-08T02:04:24;2.60;;;1.70;;
51995;SDS011;38010;53.264;6.592;2023-02-08T02:06:52;1.58;;;1.48;;
51995;SDS011;38010;53.264;6.592;2023-02-08T02:09:26;1.98;;;1.77;;
51995;SDS011;38010;53.264;6.592;2023-02-08T02:11:56;2.00;;;1.38;;
51995;SDS011;38010;53.264;6.592;2023-02-08T02:14:23;1.77;;;1.50;;
51995;SDS011;38010;53.264;6.592;2023-02-08T02:16:49;1.85;;;1.58;;
51995;SDS011;38010;53.264;6.592;2023-02-08T02:19:59;2.20;;;1.80;;
51995;SDS011;38010;53.264;6.592;2023-02-08T02:25:06;1.70;;;1.50;;
51995;SDS011;38010;53.264;6.592;2023-02-08T02:39:16;1.88;;;1.60;;
51995;SDS011;38010;53.264;6.592;2023-02-08T02:44:57;2.10;;;1.75;;
51995;SDS011;38010;53.264;6.592;2023-02-08T02:55:59;1.95;;;1.55;;
51995;SDS011;38010;53.264;6.592;2023-02-08T02:58:36;1.52;;;1.42;;
51995;SDS011;38010;53.264;6.592;2023-02-08T03:01:04;1.95;;;1.58;;
51995;SDS011;38010;53.264;6.592;2023-02-08T03:03:30;1.90;;;1.70;;
51995;SDS011;38010;53.264;6.592;2023-02-08T03:06:02;1.95;;;1.75;;
51995;SDS011;38010;53.264;6.592;2023-02-08T03:08:54;1.92;;;1.70;;
51995;SDS011;38010;53.264;6.592;2023-02-08T03:11:33;2.50;;;1.80;;
51995;SDS011;38010;53.264;6.592;2023-02-08T03:16:43;1.83;;;1.60;;
51995;SDS011;38010;53.264;6.592;2023-02-08T03:19:35;1.77;;;1.63;;
51995;SDS011;38010;53.264;6.592;2023-02-08T03:24:52;2.67;;;1.70;;
51995;SDS011;38010;53.264;6.592;2023-02-08T03:27:24;2.27;;;1.70;;
51995;SDS011;38010;53.264;6.592;2023-02-08T03:30:00;1.70;;;1.60;;
51995;SDS011;38010;53.264;6.592;2023-02-08T03:35:14;1.58;;;1.48;;
51995;SDS011;38010;53.264;6.592;2023-02-08T03:40:20;2.90;;;1.73;;
51995;SDS011;38010;53.264;6.592;2023-02-08T03:43:04;2.50;;;1.88;;
51995;SDS011;38010;53.264;6.592;2023-02-08T03:45:41;2.53;;;2.08;;
51995;SDS011;38010;53.264;6.592;2023-02-08T03:48:11;2.53;;;2.00;;
51995;SDS011;38010;53.264;6.592;2023-02-08T03:50:39;1.83;;;1.60;;
51995;SDS011;38010;53.264;6.592;2023-02-08T03:53:10;2.35;;;1.90;;
51995;SDS011;38010;53.264;6.592;2023-02-08T03:55:37;2.40;;;1.88;;
51995;SDS011;38010;53.264;6.592;2023-02-08T03:58:07;2.85;;;1.73;;
51995;SDS011;38010;53.264;6.592;2023-02-08T04:01:00;1.75;;;1.63;;
51995;SDS011;38010;53.264;6.592;2023-02-08T04:03:29;2.08;;;1.80;;
51995;SDS011;38010;53.264;6.592;2023-02-08T04:05:56;2.30;;;1.92;;
51995;SDS011;38010;53.264;6.592;2023-02-08T04:08:23;1.80;;;1.70;;
51995;SDS011;38010;53.264;6.592;2023-02-08T04:10:49;3.13;;;2.30;;
51995;SDS011;38010;53.264;6.592;2023-02-08T04:13:14;2.38;;;1.70;;
51995;SDS011;38010;53.264;6.592;2023-02-08T04:15:40;2.17;;;1.98;;
51995;SDS011;38010;53.264;6.592;2023-02-08T04:18:08;1.77;;;1.67;;
51995;SDS011;38010;53.264;6.592;2023-02-08T04:20:33;1.88;;;1.67;;
51995;SDS011;38010;53.264;6.592;2023-02-08T04:22:59;2.00;;;1.75;;
51995;SDS011;38010;53.264;6.592;2023-02-08T04:25:25;2.00;;;1.70;;
51995;SDS011;38010;53.264;6.592;2023-02-08T04:27:50;1.70;;;1.60;;
51995;SDS011;38010;53.264;6.592;2023-02-08T04:30:17;1.92;;;1.70;;
51995;SDS011;38010;53.264;6.592;2023-02-08T04:32:42;1.60;;;1.50;;
51995;SDS011;38010;53.264;6.592;2023-02-08T04:35:08;1.55;;;1.42;;
51995;SDS011;38010;53.264;6.592;2023-02-08T04:37:34;2.40;;;2.08;;
51995;SDS011;38010;53.264;6.592;2023-02-08T04:39:59;1.98;;;1.77;;
51995;SDS011;38010;53.264;6.592;2023-02-08T04:42:25;2.05;;;1.80;;
51995;SDS011;38010;53.264;6.592;2023-02-08T04:44:51;2.20;;;1.90;;
51995;SDS011;38010;53.264;6.592;2023-02-08T04:47:17;2.00;;;1.63;;
51995;SDS011;38010;53.264;6.592;2023-02-08T04:49:42;1.58;;;1.48;;
51995;SDS011;38010;53.264;6.592;2023-02-08T04:52:08;2.03;;;1.83;;
51995;SDS011;38010;53.264;6.592;2023-02-08T04:54:34;2.30;;;1.88;;
51995;SDS011;38010;53.264;6.592;2023-02-08T04:57:00;2.15;;;1.75;;
51995;SDS011;38010;53.264;6.592;2023-02-08T04:59:25;2.25;;;1.90;;
51995;SDS011;38010;53.264;6.592;2023-02-08T05:01:51;2.40;;;1.67;;
51995;SDS011;38010;53.264;6.592;2023-02-08T05:04:17;1.80;;;1.60;;
51995;SDS011;38010;53.264;6.592;2023-02-08T05:06:42;1.65;;;1.55;;
51995;SDS011;38010;53.264;6.592;2023-02-08T05:09:08;2.00;;;1.67;;
51995;SDS011;38010;53.264;6.592;2023-02-08T05:11:34;1.67;;;1.58;;
51995;SDS011;38010;53.264;6.592;2023-02-08T05:14:01;1.88;;;1.50;;
51995;SDS011;38010;53.264;6.592;2023-02-08T05:16:27;2.45;;;2.03;;
51995;SDS011;38010;53.264;6.592;2023-02-08T05:18:56;2.25;;;1.85;;
51995;SDS011;38010;53.264;6.592;2023-02-08T05:21:22;2.17;;;1.80;;
51995;SDS011;38010;53.264;6.592;2023-02-08T05:23:48;1.90;;;1.70;;
51995;SDS011;38010;53.264;6.592;2023-02-08T05:26:15;1.60;;;1.50;;
51995;SDS011;38010;53.264;6.592;2023-02-08T05:28:41;1.98;;;1.70;;
51995;SDS011;38010;53.264;6.592;2023-02-08T05:31:11;1.65;;;1.55;;
51995;SDS011;38010;53.264;6.592;2023-02-08T05:33:47;1.60;;;1.50;;
51995;SDS011;38010;53.264;6.592;2023-02-08T05:36:14;2.05;;;1.80;;
51995;SDS011;38010;53.264;6.592;2023-02-08T05:38:40;1.80;;;1.60;;
51995;SDS011;38010;53.264;6.592;2023-02-08T05:41:06;2.53;;;1.83;;
51995;SDS011;38010;53.264;6.592;2023-02-08T05:43:31;2.22;;;1.90;;
51995;SDS011;38010;53.264;6.592;2023-02-08T05:45:57;2.30;;;1.80;;
51995;SDS011;38010;53.264;6.592;2023-02-08T05:48:23;1.60;;;1.50;;
51995;SDS011;38010;53.264;6.592;2023-02-08T05:50:48;1.80;;;1.70;;
51995;SDS011;38010;53.264;6.592;2023-02-08T05:53:14;1.83;;;1.63;;
51995;SDS011;38010;53.264;6.592;2023-02-08T05:55:43;1.98;;;1.77;;
51995;SDS011;38010;53.264;6.592;2023-02-08T05:58:10;1.80;;;1.50;;
51995;SDS011;38010;53.264;6.592;2023-02-08T06:00:36;2.28;;;2.00;;
51995;SDS011;38010;53.264;6.592;2023-02-08T06:03:02;1.95;;;1.65;;
51995;SDS011;38010;53.264;6.592;2023-02-08T06:05:27;1.80;;;1.38;;
51995;SDS011;38010;53.264;6.592;2023-02-08T06:07:53;1.40;;;1.30;;
51995;SDS011;38010;53.264;6.592;2023-02-08T06:10:19;1.80;;;1.70;;
51995;SDS011;38010;53.264;6.592;2023-02-08T06:12:45;2.05;;;1.52;;
51995;SDS011;38010;53.264;6.592;2023-02-08T06:15:10;1.67;;;1.58;;
51995;SDS011;38010;53.264;6.592;2023-02-08T06:17:36;1.60;;;1.50;;
51995;SDS011;38010;53.264;6.592;2023-02-08T06:20:02;1.85;;;1.58;;
51995;SDS011;38010;53.264;6.592;2023-02-08T06:22:29;2.22;;;1.70;;
51995;SDS011;38010;53.264;6.592;2023-02-08T06:24:54;1.85;;;1.60;;
51995;SDS011;38010;53.264;6.592;2023-02-08T06:27:20;1.73;;;1.63;;
51995;SDS011;38010;53.264;6.592;2023-02-08T06:29:46;1.83;;;1.65;;
51995;SDS011;38010;53.264;6.592;2023-02-08T06:32:12;1.85;;;1.63;;
51995;SDS011;38010;53.264;6.592;2023-02-08T06:34:38;1.80;;;1.70;;
51995;SDS011;38010;53.264;6.592;2023-02-08T06:37:03;1.77;;;1.67;;
51995;SDS011;38010;53.264;6.592;2023-02-08T06:39:29;1.98;;;1.65;;
51995;SDS011;38010;53.264;6.592;2023-02-08T06:41:55;2.38;;;1.77;;
51995;SDS011;38010;53.264;6.592;2023-02-08T06:44:21;1.80;;;1.70;;
51995;SDS011;38010;53.264;6.592;2023-02-08T06:46:48;3.30;;;2.00;;
51995;SDS011;38010;53.264;6.592;2023-02-08T06:49:13;2.00;;;1.85;;
51995;SDS011;38010;53.264;6.592;2023-02-08T06:51:39;2.22;;;2.03;;
51995;SDS011;38010;53.264;6.592;2023-02-08T06:54:05;2.60;;;2.33;;
51995;SDS011;38010;53.264;6.592;2023-02-08T06:56:31;2.30;;;2.10;;
51995;SDS011;38010;53.264;6.592;2023-02-08T06:58:57;2.17;;;1.80;;
51995;SDS011;38010;53.264;6.592;2023-02-08T07:01:23;2.30;;;2.10;;
51995;SDS011;38010;53.264;6.592;2023-02-08T07:03:48;4.80;;;2.40;;
51995;SDS011;38010;53.264;6.592;2023-02-08T07:06:15;2.78;;;2.30;;
51995;SDS011;38010;53.264;6.592;2023-02-08T07:08:42;3.72;;;2.63;;
51995;SDS011;38010;53.264;6.592;2023-02-08T07:11:08;3.00;;;2.45;;
51995;SDS011;38010;53.264;6.592;2023-02-08T07:13:35;3.60;;;2.47;;
51995;SDS011;38010;53.264;6.592;2023-02-08T07:16:05;3.33;;;2.45;;
51995;SDS011;38010;53.264;6.592;2023-02-08T07:18:32;2.60;;;2.30;;
51995;SDS011;38010;53.264;6.592;2023-02-08T07:20:58;2.30;;;2.10;;
51995;SDS011;38010;53.264;6.592;2023-02-08T07:23:24;3.20;;;2.38;;
51995;SDS011;38010;53.264;6.592;2023-02-08T07:25:57;3.72;;;2.33;;
51995;SDS011;38010;53.264;6.592;2023-02-08T07:28:24;2.25;;;2.05;;
51995;SDS011;38010;53.264;6.592;2023-02-08T07:30:50;2.83;;;2.33;;
51995;SDS011;38010;53.264;6.592;2023-02-08T07:33:15;3.60;;;2.65;;
51995;SDS011;38010;53.264;6.592;2023-02-08T07:35:41;2.50;;;2.30;;
51995;SDS011;38010;53.264;6.592;2023-02-08T07:38:07;2.30;;;2.08;;
51995;SDS011;38010;53.264;6.592;2023-02-08T07:40:34;2.58;;;2.38;;
51995;SDS011;38010;53.264;6.592;2023-02-08T07:43:00;2.20;;;1.83;;
51995;SDS011;38010;53.264;6.592;2023-02-08T07:45:25;3.25;;;2.20;;
51995;SDS011;38010;53.264;6.592;2023-02-08T07:47:51;2.60;;;2.10;;
51995;SDS011;38010;53.264;6.592;2023-02-08T07:50:17;2.90;;;2.33;;
51995;SDS011;38010;53.264;6.592;2023-02-08T07:52:43;2.20;;;2.00;;
51995;SDS011;38010;53.264;6.592;2023-02-08T07:55:13;2.13;;;1.92;;
51995;SDS011;38010;53.264;6.592;2023-02-08T07:57:44;2.65;;;1.98;;
51995;SDS011;38010;53.264;6.592;2023-02-08T08:00:12;2.28;;;1.92;;
51995;SDS011;38010;53.264;6.592;2023-02-08T08:02:39;2.70;;;2.20;;
51995;SDS011;38010;53.264;6.592;2023-02-08T08:05:06;2.00;;;1.80;;
51995;SDS011;38010;53.264;6.592;2023-02-08T08:07:32;1.88;;;1.67;;
51995;SDS011;38010;53.264;6.592;2023-02-08T08:09:58;2.30;;;2.03;;
51995;SDS011;38010;53.264;6.592;2023-02-08T08:12:24;2.30;;;2.10;;
51995;SDS011;38010;53.264;6.592;2023-02-08T08:14:50;2.50;;;1.98;;
51995;SDS011;38010;53.264;6.592;2023-02-08T08:17:16;1.80;;;1.70;;
51995;SDS011;38010;53.264;6.592;2023-02-08T08:19:42;2.25;;;2.05;;
51995;SDS011;38010;53.264;6.592;2023-02-08T08:22:08;3.13;;;2.17;;
51995;SDS011;38010;53.264;6.592;2023-02-08T08:24:34;2.15;;;1.95;;
51995;SDS011;38010;53.264;6.592;2023-02-08T08:27:04;2.20;;;2.00;;
51995;SDS011;38010;53.264;6.592;2023-02-08T08:29:31;2.17;;;1.75;;
51995;SDS011;38010;53.264;6.592;2023-02-08T08:31:57;2.13;;;1.92;;
51995;SDS011;38010;53.264;6.592;2023-02-08T08:34:23;2.13;;;1.92;;
51995;SDS011;38010;53.264;6.592;2023-02-08T08:36:57;2.47;;;2.28;;
51995;SDS011;38010;53.264;6.592;2023-02-08T08:39:24;2.75;;;2.28;;
51995;SDS011;38010;53.264;6.592;2023-02-08T08:41:51;2.20;;;2.00;;
51995;SDS011;38010;53.264;6.592;2023-02-08T08:44:18;3.08;;;2.13;;
51995;SDS011;38010;53.264;6.592;2023-02-08T08:46:44;2.30;;;1.95;;
51995;SDS011;38010;53.264;6.592;2023-02-08T08:49:09;2.63;;;2.28;;
51995;SDS011;38010;53.264;6.592;2023-02-08T08:51:35;2.35;;;1.90;;
51995;SDS011;38010;53.264;6.592;2023-02-08T08:54:01;2.75;;;2.10;;
51995;SDS011;38010;53.264;6.592;2023-02-08T08:56:31;2.50;;;1.98;;
51995;SDS011;38010;53.264;6.592;2023-02-08T08:58:57;2.55;;;2.05;;
51995;SDS011;38010;53.264;6.592;2023-02-08T09:01:23;2.38;;;2.13;;
51995;SDS011;38010;53.264;6.592;2023-02-08T09:03:49;2.03;;;1.83;;
51995;SDS011;38010;53.264;6.592;2023-02-08T09:06:15;2.78;;;2.25;;
51995;SDS011;38010;53.264;6.592;2023-02-08T09:08:42;2.53;;;2.10;;
51995;SDS011;38010;53.264;6.592;2023-02-08T09:11:09;2.47;;;2.17;;
51995;SDS011;38010;53.264;6.592;2023-02-08T09:13:39;2.55;;;2.10;;
51995;SDS011;38010;53.264;6.592;2023-02-08T09:16:06;2.85;;;2.10;;
51995;SDS011;38010;53.264;6.592;2023-02-08T09:18:33;2.85;;;2.13;;
51995;SDS011;38010;53.264;6.592;2023-02-08T09:21:04;2.67;;;2.33;;
51995;SDS011;38010;53.264;6.592;2023-02-08T09:23:30;2.47;;;2.28;;
51995;SDS011;38010;53.264;6.592;2023-02-08T09:25:56;2.53;;;2.33;;
51995;SDS011;38010;53.264;6.592;2023-02-08T09:28:22;2.65;;;2.40;;
51995;SDS011;38010;53.264;6.592;2023-02-08T09:30:47;2.55;;;2.25;;
51995;SDS011;38010;53.264;6.592;2023-02-08T09:33:13;2.67;;;2.47;;
51995;SDS011;38010;53.264;6.592;2023-02-08T09:35:39;2.50;;;2.30;;
51995;SDS011;38010;53.264;6.592;2023-02-08T09:38:04;2.88;;;2.22;;
51995;SDS011;38010;53.264;6.592;2023-02-08T09:40:34;2.85;;;2.55;;
51995;SDS011;38010;53.264;6.592;2023-02-08T09:45:58;2.33;;;1.83;;
51995;SDS011;38010;53.264;6.592;2023-02-08T09:48:36;2.58;;;2.35;;
51995;SDS011;38010;53.264;6.592;2023-02-08T09:51:07;4.15;;;2.50;;
51995;SDS011;38010;53.264;6.592;2023-02-08T09:53:36;2.38;;;2.10;;
51995;SDS011;38010;53.264;6.592;2023-02-08T09:56:14;2.78;;;2.47;;
51995;SDS011;38010;53.264;6.592;2023-02-08T09:58:43;2.75;;;2.45;;
51995;SDS011;38010;53.264;6.592;2023-02-08T10:01:18;2.55;;;2.10;;
51995;SDS011;38010;53.264;6.592;2023-02-08T10:03:46;2.72;;;2.53;;
51995;SDS011;38010;53.264;6.592;2023-02-08T10:06:16;2.60;;;2.38;;
51995;SDS011;38010;53.264;6.592;2023-02-08T10:08:44;3.03;;;2.30;;
51995;SDS011;38010;53.264;6.592;2023-02-08T10:20:02;2.53;;;2.33;;
51995;SDS011;38010;53.264;6.592;2023-02-08T10:22:30;2.67;;;2.40;;
51995;SDS011;38010;53.264;6.592;2023-02-08T10:30:48;2.65;;;2.30;;
51995;SDS011;38010;53.264;6.592;2023-02-08T10:34:10;2.83;;;2.30;;
51995;SDS011;38010;53.264;6.592;2023-02-08T10:36:33;3.08;;;2.78;;
51995;SDS011;38010;53.264;6.592;2023-02-08T10:39:10;2.53;;;2.30;;
51995;SDS011;38010;53.264;6.592;2023-02-08T10:41:40;2.97;;;2.45;;
51995;SDS011;38010;53.264;6.592;2023-02-08T10:49:34;2.88;;;2.53;;
51995;SDS011;38010;53.264;6.592;2023-02-08T10:52:02;3.13;;;2.83;;
51995;SDS011;38010;53.264;6.592;2023-02-08T10:54:28;3.08;;;2.78;;
51995;SDS011;38010;53.264;6.592;2023-02-08T10:56:54;2.53;;;2.33;;
51995;SDS011;38010;53.264;6.592;2023-02-08T10:59:26;2.70;;;2.47;;
51995;SDS011;38010;53.264;6.592;2023-02-08T11:02:19;2.47;;;2.20;;
51995;SDS011;38010;53.264;6.592;2023-02-08T11:07:28;3.00;;;2.53;;
51995;SDS011;38010;53.264;6.592;2023-02-08T11:10:11;3.22;;;2.58;;
51995;SDS011;38010;53.264;6.592;2023-02-08T11:12:39;2.97;;;2.53;;
51995;SDS011;38010;53.264;6.592;2023-02-08T11:15:15;2.58;;;2.20;;
51995;SDS011;38010;53.264;6.592;2023-02-08T11:17:53;2.30;;;2.10;;
51995;SDS011;38010;53.264;6.592;2023-02-08T11:20:25;2.63;;;2.42;;
51995;SDS011;38010;53.264;6.592;2023-02-08T11:23:01;2.70;;;2.50;;
51995;SDS011;38010;53.264;6.592;2023-02-08T11:25:29;2.65;;;2.45;;
51995;SDS011;38010;53.264;6.592;2023-02-08T11:27:57;3.30;;;2.70;;
51995;SDS011;38010;53.264;6.592;2023-02-08T11:30:24;2.47;;;2.28;;
51995;SDS011;38010;53.264;6.592;2023-02-08T11:38:40;3.15;;;2.47;;
51995;SDS011;38010;53.264;6.592;2023-02-08T11:41:12;2.55;;;2.25;;
51995;SDS011;38010;53.264;6.592;2023-02-08T11:43:40;2.33;;;2.13;;
51995;SDS011;38010;53.264;6.592;2023-02-08T11:46:07;3.83;;;2.30;;
51995;SDS011;38010;53.264;6.592;2023-02-08T11:48:44;2.38;;;2.17;;
51995;SDS011;38010;53.264;6.592;2023-02-08T11:51:32;2.67;;;2.30;;
51995;SDS011;38010;53.264;6.592;2023-02-08T11:54:00;2.50;;;2.30;;
51995;SDS011;38010;53.264;6.592;2023-02-08T11:56:28;2.40;;;1.92;;
51995;SDS011;38010;53.264;6.592;2023-02-08T11:58:56;2.30;;;2.05;;
51995;SDS011;38010;53.264;6.592;2023-02-08T12:01:30;2.40;;;2.20;;
51995;SDS011;38010;53.264;6.592;2023-02-08T12:03:59;2.95;;;2.63;;
51995;SDS011;38010;53.264;6.592;2023-02-08T12:06:31;2.20;;;2.00;;
51995;SDS011;38010;53.264;6.592;2023-02-08T12:09:29;2.20;;;2.00;;
51995;SDS011;38010;53.264;6.592;2023-02-08T12:12:16;2.40;;;2.20;;
51995;SDS011;38010;53.264;6.592;2023-02-08T12:17:45;2.80;;;2.17;;
51995;SDS011;38010;53.264;6.592;2023-02-08T12:23:00;2.50;;;2.30;;
51995;SDS011;38010;53.264;6.592;2023-02-08T12:25:34;3.28;;;2.30;;
51995;SDS011;38010;53.264;6.592;2023-02-08T12:31:17;2.30;;;2.10;;
51995;SDS011;38010;53.264;6.592;2023-02-08T12:36:35;2.67;;;1.98;;
51995;SDS011;38010;53.264;6.592;2023-02-08T12:39:40;2.35;;;1.80;;
51995;SDS011;38010;53.264;6.592;2023-02-08T12:42:30;3.28;;;2.30;;
51995;SDS011;38010;53.264;6.592;2023-02-08T12:53:56;2.05;;;1.80;;
51995;SDS011;38010;53.264;6.592;2023-02-08T12:56:31;2.63;;;1.92;;
51995;SDS011;38010;53.264;6.592;2023-02-08T12:59:02;2.72;;;1.92;;
51995;SDS011;38010;53.264;6.592;2023-02-08T13:01:35;2.00;;;1.80;;
51995;SDS011;38010;53.264;6.592;2023-02-08T13:04:10;1.80;;;1.48;;
51995;SDS011;38010;53.264;6.592;2023-02-08T13:09:22;2.58;;;1.80;;
51995;SDS011;38010;53.264;6.592;2023-02-08T13:11:53;2.10;;;1.90;;
51995;SDS011;38010;53.264;6.592;2023-02-08T13:14:36;3.17;;;2.10;;
51995;SDS011;38010;53.264;6.592;2023-02-08T13:17:15;2.40;;;1.65;;
51995;SDS011;38010;53.264;6.592;2023-02-08T13:22:40;1.92;;;1.70;;
51995;SDS011;38010;53.264;6.592;2023-02-08T13:25:13;1.58;;;1.40;;
51995;SDS011;38010;53.264;6.592;2023-02-08T13:30:27;2.30;;;1.65;;
51995;SDS011;38010;53.264;6.592;2023-02-08T13:32:53;1.95;;;1.60;;
51995;SDS011;38010;53.264;6.592;2023-02-08T13:35:27;1.63;;;1.52;;
51995;SDS011;38010;53.264;6.592;2023-02-08T13:40:28;1.70;;;1.40;;
51995;SDS011;38010;53.264;6.592;2023-02-08T13:43:00;1.63;;;1.48;;
51995;SDS011;38010;53.264;6.592;2023-02-08T13:48:01;2.15;;;1.73;;
51995;SDS011;38010;53.264;6.592;2023-02-08T13:53:12;1.50;;;1.20;;
51995;SDS011;38010;53.264;6.592;2023-02-08T14:01:13;1.58;;;1.42;;
51995;SDS011;38010;53.264;6.592;2023-02-08T14:06:33;1.40;;;1.30;;
51995;SDS011;38010;53.264;6.592;2023-02-08T14:11:41;1.58;;;1.40;;
51995;SDS011;38010;53.264;6.592;2023-02-08T14:14:17;1.73;;;1.38;;
51995;SDS011;38010;53.264;6.592;2023-02-08T14:17:07;1.55;;;1.20;;
51995;SDS011;38010;53.264;6.592;2023-02-08T14:19:41;1.50;;;1.20;;
51995;SDS011;38010;53.264;6.592;2023-02-08T14:24:38;1.35;;;1.23;;
51995;SDS011;38010;53.264;6.592;2023-02-08T14:32:27;1.85;;;1.15;;
51995;SDS011;38010;53.264;6.592;2023-02-08T14:35:39;1.25;;;1.15;;
51995;SDS011;38010;53.264;6.592;2023-02-08T14:37:47;1.52;;;1.15;;
51995;SDS011;38010;53.264;6.592;2023-02-08T14:43:02;1.08;;;0.98;;
51995;SDS011;38010;53.264;6.592;2023-02-08T14:45:44;1.58;;;1.15;;
51995;SDS011;38010;53.264;6.592;2023-02-08T14:56:14;1.40;;;1.20;;
51995;SDS011;38010;53.264;6.592;2023-02-08T14:59:02;1.00;;;0.90;;
51995;SDS011;38010;53.264;6.592;2023-02-08T15:04:21;1.20;;;1.10;;
51995;SDS011;38010;53.264;6.592;2023-02-08T15:06:53;1.45;;;1.17;;
51995;SDS011;38010;53.264;6.592;2023-02-08T15:09:38;1.65;;;1.10;;
51995;SDS011;38010;53.264;6.592;2023-02-08T15:14:52;1.30;;;1.13;;
51995;SDS011;38010;53.264;6.592;2023-02-08T15:17:21;1.10;;;1.00;;
51995;SDS011;38010;53.264;6.592;2023-02-08T15:20:19;1.55;;;0.90;;
51995;SDS011;38010;53.264;6.592;2023-02-08T15:23:14;1.67;;;1.00;;
51995;SDS011;38010;53.264;6.592;2023-02-08T15:28:45;1.25;;;1.10;;
51995;SDS011;38010;53.264;6.592;2023-02-08T15:31:19;1.40;;;1.13;;
51995;SDS011;38010;53.264;6.592;2023-02-08T15:33:56;0.95;;;0.88;;
51995;SDS011;38010;53.264;6.592;2023-02-08T15:36:28;0.98;;;0.90;;
51995;SDS011;38010;53.264;6.592;2023-02-08T15:39:00;1.00;;;0.90;;
51995;SDS011;38010;53.264;6.592;2023-02-08T15:41:33;1.17;;;1.08;;
51995;SDS011;38010;53.264;6.592;2023-02-08T15:46:33;1.17;;;1.08;;
51995;SDS011;38010;53.264;6.592;2023-02-08T15:49:01;1.30;;;0.90;;
51995;SDS011;38010;53.264;6.592;2023-02-08T15:51:27;1.52;;;1.00;;
51995;SDS011;38010;53.264;6.592;2023-02-08T15:53:53;1.20;;;1.10;;
51995;SDS011;38010;53.264;6.592;2023-02-08T15:56:38;1.17;;;1.00;;
51995;SDS011;38010;53.264;6.592;2023-02-08T15:59:04;1.15;;;0.90;;
51995;SDS011;38010;53.264;6.592;2023-02-08T16:01:40;1.02;;;0.90;;
51995;SDS011;38010;53.264;6.592;2023-02-08T16:04:11;1.10;;;0.98;;
51995;SDS011;38010;53.264;6.592;2023-02-08T16:06:38;1.48;;;0.68;;
51995;SDS011;38010;53.264;6.592;2023-02-08T16:09:18;1.23;;;0.90;;
51995;SDS011;38010;53.264;6.592;2023-02-08T16:11:46;1.17;;;1.00;;
51995;SDS011;38010;53.264;6.592;2023-02-08T16:14:14;0.95;;;0.80;;
51995;SDS011;38010;53.264;6.592;2023-02-08T16:16:43;1.45;;;0.90;;
51995;SDS011;38010;53.264;6.592;2023-02-08T16:22:40;1.10;;;1.00;;
51995;SDS011;38010;53.264;6.592;2023-02-08T16:24:46;1.15;;;0.90;;
51995;SDS011;38010;53.264;6.592;2023-02-08T16:27:30;0.82;;;0.80;;
51995;SDS011;38010;53.264;6.592;2023-02-08T16:29:57;1.77;;;0.80;;
51995;SDS011;38010;53.264;6.592;2023-02-08T16:32:27;1.65;;;0.90;;
51995;SDS011;38010;53.264;6.592;2023-02-08T16:34:55;0.73;;;0.73;;
51995;SDS011;38010;53.264;6.592;2023-02-08T16:37:24;1.10;;;0.90;;
51995;SDS011;38010;53.264;6.592;2023-02-08T16:39:51;1.45;;;0.85;;
51995;SDS011;38010;53.264;6.592;2023-02-08T16:42:24;1.30;;;0.90;;
51995;SDS011;38010;53.264;6.592;2023-02-08T16:50:21;1.88;;;0.82;;
51995;SDS011;38010;53.264;6.592;2023-02-08T16:52:49;1.73;;;0.80;;
51995;SDS011;38010;53.264;6.592;2023-02-08T16:55:25;1.13;;;0.85;;
51995;SDS011;38010;53.264;6.592;2023-02-08T16:57:53;0.80;;;0.80;;
51995;SDS011;38010;53.264;6.592;2023-02-08T17:02:48;0.80;;;0.80;;
51995;SDS011;38010;53.264;6.592;2023-02-08T17:05:14;1.08;;;0.80;;
51995;SDS011;38010;53.264;6.592;2023-02-08T17:07:41;1.30;;;0.80;;
51995;SDS011;38010;53.264;6.592;2023-02-08T17:10:07;1.00;;;0.90;;
51995;SDS011;38010;53.264;6.592;2023-02-08T17:12:43;0.95;;;0.82;;
51995;SDS011;38010;53.264;6.592;2023-02-08T17:15:09;1.48;;;0.95;;
51995;SDS011;38010;53.264;6.592;2023-02-08T17:17:35;1.00;;;0.90;;
51995;SDS011;38010;53.264;6.592;2023-02-08T17:20:00;1.27;;;0.95;;
51995;SDS011;38010;53.264;6.592;2023-02-08T17:22:26;1.00;;;0.90;;
51995;SDS011;38010;53.264;6.592;2023-02-08T17:24:52;1.10;;;1.00;;
51995;SDS011;38010;53.264;6.592;2023-02-08T17:27:18;1.10;;;0.80;;
51995;SDS011;38010;53.264;6.592;2023-02-08T17:29:43;0.82;;;0.70;;
51995;SDS011;38010;53.264;6.592;2023-02-08T17:32:09;1.00;;;0.90;;
51995;SDS011;38010;53.264;6.592;2023-02-08T17:34:35;1.33;;;0.98;;
51995;SDS011;38010;53.264;6.592;2023-02-08T17:37:00;1.35;;;1.08;;
51995;SDS011;38010;53.264;6.592;2023-02-08T17:39:27;1.20;;;1.02;;
51995;SDS011;38010;53.264;6.592;2023-02-08T17:41:52;1.27;;;0.90;;